Terminal Aerodrome Forecast
Issued by NWS

Current Version | Previous Version | Graphics & Text | Print | Product List | Glossary On
Versions: 1 2 3 4 5 6 7 8 9 10 11 12 13 14 15 16 17 18 19 20 21 22
000
FTUS41 KPBZ 172320
TAFHLG
TAF
KHLG 172320Z 1800/1824 12006KT P6SM SCT150
     FM180500 16007KT P6SM BKN100 WS020/21035KT
     FM181100 19012KT 6SM -RA OVC050 WS020/21040KT
     FM181500 21016G25KT 4SM -RA BR OVC015
     FM181800 19014G28KT P6SM VCSH OVC045=

USA.gov is the U.S. government's official web portal to all federal, state and local government web resources and services.